Time;durP1;ratioP1;P1;durP2;ratioP2;P2;SDS_P1;SDS_P2;PMS_P1;PMS_P2;Temp;Humidity;BMP_temperature;BMP_pressure;BME280_temperature;BME280_humidity;BME280_pressure;Samples;Min_cycle;Max_cycle;Signal;HPM_P1;HPM_P2
2022/11/15 00:00:05;;;;;;;8.07;4.57;;;;;;;9.74;77.57;99264.81;342037;28;973;-69
2022/11/15 00:00:17;;;;;;;7.13;4.50;;;;;;;9.75;77.37;99264.75;341635;28;1383;-69
2022/11/15 00:00:29;;;;;;;7.13;4.50;;;;;;;9.76;77.70;99260.44;340765;29;1192;-69
2022/11/15 00:00:41;;;;;;;8.18;4.55;;;;;;;9.77;77.42;99262.94;340759;29;1116;-68
2022/11/15 00:00:53;;;;;;;8.05;4.72;;;;;;;9.74;77.32;99257.88;340584;29;1401;-69
2022/11/15 00:01:13;;;;;;;7.28;4.80;;;;;;;9.73;77.33;99265.72;340729;29;1793;-68
2022/11/15 00:01:25;;;;;;;8.88;5.13;;;;;;;9.71;77.11;99262.31;340721;29;1500;-68
2022/11/15 00:01:38;;;;;;;9.73;5.25;;;;;;;9.69;77.30;99256.34;342501;28;1043;-68
2022/11/15 00:01:50;;;;;;;9.60;5.93;;;;;;;9.67;77.24;99260.75;340911;29;1193;-69
2022/11/15 00:02:04;;;;;;;11.02;8.48;;;;;;;9.69;77.48;99252.00;340827;29;2927;-68
2022/11/15 00:02:16;;;;;;;13.60;10.57;;;;;;;9.71;77.35;99254.53;341975;28;1032;-68
2022/11/15 00:02:28;;;;;;;11.93;8.52;;;;;;;9.69;77.42;99254.59;341876;28;1234;-68
2022/11/15 00:02:40;;;;;;;9.18;5.78;;;;;;;9.69;77.39;99251.16;342053;28;1040;-68
2022/11/15 00:02:53;;;;;;;8.13;5.22;;;;;;;9.70;76.99;99255.41;342100;28;1063;-69
2022/11/15 00:03:04;;;;;;;7.53;5.13;;;;;;;9.71;77.17;99257.13;342313;28;1148;-69
2022/11/15 00:03:18;;;;;;;7.45;5.13;;;;;;;9.63;77.18;99254.81;342304;28;1176;-68
2022/11/15 00:03:30;;;;;;;7.90;5.32;;;;;;;9.57;77.49;99250.66;342088;28;1202;-68
2022/11/15 00:03:43;;;;;;;8.93;5.40;;;;;;;9.56;77.26;99259.38;342490;28;1265;-69
2022/11/15 00:03:55;;;;;;;10.13;5.40;;;;;;;9.52;77.64;99250.00;342414;28;1076;-69
2022/11/15 00:04:07;;;;;;;10.90;5.30;;;;;;;9.49;77.88;99254.44;342335;28;1264;-69
2022/11/15 00:04:19;;;;;;;10.70;5.47;;;;;;;9.40;78.09;99264.22;342447;28;1067;-69
2022/11/15 00:04:31;;;;;;;9.07;5.20;;;;;;;9.41;78.35;99265.06;342449;28;1047;-70
2022/11/15 00:04:43;;;;;;;8.75;5.00;;;;;;;9.45;78.30;99260.63;342321;28;1205;-69
2022/11/15 00:04:54;;;;;;;7.63;4.90;;;;;;;9.47;78.30;99254.47;342399;28;1071;-69
2022/11/15 00:05:06;;;;;;;6.85;4.88;;;;;;;9.49;78.39;99252.69;342600;28;1258;-68
2022/11/15 00:05:18;;;;;;;7.35;4.90;;;;;;;9.50;78.34;99263.94;342331;28;1168;-68
2022/11/15 00:05:35;;;;;;;7.43;4.90;;;;;;;9.52;78.16;99264.72;342487;28;1103;-68
2022/11/15 00:05:47;;;;;;;8.20;5.07;;;;;;;9.52;78.16;99252.59;341535;28;2273;-69
2022/11/15 00:06:04;;;;;;;7.88;4.80;;;;;;;9.55;78.34;99255.06;342283;28;1959;-68
2022/11/15 00:06:16;;;;;;;6.32;4.63;;;;;;;9.56;78.27;99259.38;341028;29;1071;-69
2022/11/15 00:06:27;;;;;;;6.65;4.57;;;;;;;9.59;78.24;99254.06;340857;28;1764;-69
2022/11/15 00:06:39;;;;;;;7.47;4.50;;;;;;;9.62;78.13;99252.25;342203;28;2174;-69
2022/11/15 00:06:51;;;;;;;7.40;4.57;;;;;;;9.49;78.39;99252.69;341685;28;1760;-68
2022/11/15 00:07:03;;;;;;;8.07;5.05;;;;;;;9.24;78.93;99262.22;342078;28;1915;-69
2022/11/15 00:07:15;;;;;;;7.93;5.28;;;;;;;9.19;79.42;99255.44;341224;28;1565;-69
2022/11/15 00:07:47;;;;;;;7.32;4.75;;;;;;;9.36;79.24;99256.63;340783;28;1863;-69
2022/11/15 00:08:06;;;;;;;8.35;5.38;;;;;;;9.39;79.20;99259.09;342506;28;1732;-68
2022/11/15 00:08:19;;;;;;;7.60;5.05;;;;;;;9.40;78.78;99261.63;342300;28;1314;-68
2022/11/15 00:08:32;;;;;;;7.13;4.68;;;;;;;9.37;78.54;99258.28;342218;28;1178;-70
2022/11/15 00:08:44;;;;;;;8.65;4.75;;;;;;;9.36;78.76;99261.81;341766;28;2167;-69
2022/11/15 00:09:00;;;;;;;8.98;4.90;;;;;;;9.38;78.80;99265.19;341424;28;2746;-69
2022/11/15 00:09:11;;;;;;;8.25;5.15;;;;;;;9.40;78.73;99261.63;341255;28;1715;-69
2022/11/15 00:09:23;;;;;;;8.35;5.28;;;;;;;9.45;78.33;99271.00;342120;28;1820;-69
2022/11/15 00:09:35;;;;;;;10.40;5.40;;;;;;;9.47;78.57;99264.84;342316;28;749;-69
2022/11/15 00:09:47;;;;;;;10.20;6.50;;;;;;;9.47;77.99;99264.84;341163;28;1948;-69
2022/11/15 00:09:59;;;;;;;13.05;8.30;;;;;;;9.47;77.96;99256.25;340936;28;1805;-70
2022/11/15 00:10:12;;;;;;;15.30;10.55;;;;;;;9.48;78.02;99263.97;342077;28;1489;-68
2022/11/15 00:10:24;;;;;;;17.70;11.23;;;;;;;9.46;77.62;99262.34;342167;28;1277;-69
2022/11/15 00:10:36;;;;;;;14.80;10.02;;;;;;;9.17;77.42;99264.16;342071;28;1502;-68
2022/11/15 00:11:00;;;;;;;11.75;8.02;;;;;;;8.79;77.87;99261.91;341449;28;1619;-69
2022/11/15 00:11:12;;;;;;;10.15;6.50;;;;;;;8.65;78.30;99269.25;342376;28;2006;-69
2022/11/15 00:11:25;;;;;;;10.15;6.38;;;;;;;8.61;78.72;99267.63;342155;28;1325;-69
2022/11/15 00:11:37;;;;;;;10.18;6.25;;;;;;;8.51;78.77;99266.22;341969;28;1286;-68
2022/11/15 00:11:49;;;;;;;9.95;7.38;;;;;;;8.51;78.92;99266.22;342446;28;2038;-69
2022/11/15 00:12:00;;;;;;;11.45;8.00;;;;;;;8.51;78.62;99267.09;343083;28;2104;-68
2022/11/15 00:12:12;;;;;;;11.10;7.07;;;;;;;8.43;78.29;99260.44;343357;28;1680;-69
2022/11/15 00:12:24;;;;;;;10.63;6.38;;;;;;;8.43;78.61;99263.03;343738;28;1382;-68
2022/11/15 00:12:36;;;;;;;12.15;6.15;;;;;;;8.39;79.53;99262.22;343000;28;1777;-68
2022/11/15 00:12:49;;;;;;;10.60;5.93;;;;;;;8.33;79.41;99262.41;342026;28;1872;-70
2022/11/15 00:13:05;;;;;;;12.02;5.65;;;;;;;8.29;79.73;99266.88;342244;28;1312;-68
2022/11/15 00:13:17;;;;;;;11.77;5.70;;;;;;;8.14;79.50;99262.13;342061;28;1352;-69
2022/11/15 00:13:30;;;;;;;11.65;5.57;;;;;;;8.12;79.91;99271.66;343333;28;1275;-69
2022/11/15 00:13:42;;;;;;;11.15;5.30;;;;;;;8.17;79.76;99262.03;342224;28;1336;-69
2022/11/15 00:13:55;;;;;;;11.02;5.18;;;;;;;8.21;79.74;99263.66;343429;28;1555;-69
2022/11/15 00:14:07;;;;;;;9.63;5.18;;;;;;;8.34;79.88;99270.16;342545;28;4650;-69
2022/11/15 00:14:19;;;;;;;8.88;5.25;;;;;;;8.48;80.05;99266.34;343526;28;1334;-69
2022/11/15 00:14:31;;;;;;;9.27;5.20;;;;;;;8.57;80.05;99266.91;342411;28;2133;-68
2022/11/15 00:14:43;;;;;;;8.80;5.30;;;;;;;8.65;80.29;99273.59;343657;28;943;-69
2022/11/15 00:14:55;;;;;;;8.88;5.47;;;;;;;8.68;80.40;99263.97;343631;28;1728;-69
2022/11/15 00:15:07;;;;;;;8.43;5.55;;;;;;;8.75;80.23;99268.09;344836;28;1897;-69
2022/11/15 00:15:19;;;;;;;9.55;5.63;;;;;;;8.76;80.27;99271.53;344782;28;1369;-69
2022/11/15 00:15:31;;;;;;;11.35;6.00;;;;;;;8.78;80.35;99270.56;343533;28;1111;-70
2022/11/15 00:15:43;;;;;;;10.85;6.05;;;;;;;8.80;79.98;99273.13;341630;28;1734;-69
2022/11/15 00:15:59;;;;;;;9.60;5.72;;;;;;;8.81;79.99;99274.81;342039;28;1859;-69
2022/11/15 00:16:11;;;;;;;12.20;9.30;;;;;;;8.82;80.54;99270.50;342383;28;1056;-69
2022/11/15 00:16:24;;;;;;;15.07;12.55;;;;;;;8.87;80.27;99271.16;343533;28;1562;-69
2022/11/15 00:16:36;;;;;;;19.95;16.55;;;;;;;8.88;80.24;99265.09;345096;28;1223;-69
2022/11/15 00:16:48;;;;;;;27.52;22.83;;;;;;;8.93;80.08;99268.38;344052;28;1800;-69
2022/11/15 00:17:00;;;;;;;29.58;23.98;;;;;;;8.96;80.08;99273.47;342632;28;1878;-69
2022/11/15 00:17:12;;;;;;;21.13;16.67;;;;;;;8.95;79.78;99271.78;342118;28;1029;-69
2022/11/15 00:17:23;;;;;;;12.52;8.75;;;;;;;8.93;79.90;99268.38;343066;28;1291;-69
2022/11/15 00:17:35;;;;;;;9.50;6.25;;;;;;;8.91;79.84;99270.19;343403;28;1063;-68
2022/11/15 00:17:50;;;;;;;8.85;5.88;;;;;;;8.91;79.93;99270.19;342733;28;2082;-69
2022/11/15 00:18:04;;;;;;;9.13;5.50;;;;;;;8.90;80.06;99271.09;343413;28;1848;-69
2022/11/15 00:18:16;;;;;;;11.25;7.20;;;;;;;8.91;79.77;99270.19;343221;28;1556;-69
2022/11/15 00:18:29;;;;;;;14.85;9.82;;;;;;;8.91;79.67;99267.59;342527;28;1191;-69
2022/11/15 00:18:41;;;;;;;16.98;12.80;;;;;;;8.93;79.82;99279.63;342144;28;1290;-69
2022/11/15 00:19:00;;;;;;;15.23;11.48;;;;;;;8.93;79.66;99269.25;341329;28;1790;-68
2022/11/15 00:19:12;;;;;;;12.93;9.98;;;;;;;8.95;79.85;99275.25;342296;28;1798;-68
2022/11/15 00:19:24;;;;;;;12.02;8.77;;;;;;;8.94;79.71;99277.88;342251;28;1608;-69
2022/11/15 00:19:36;;;;;;;12.55;9.18;;;;;;;8.96;79.83;99274.31;342383;28;1066;-68
2022/11/15 00:19:49;;;;;;;13.93;10.82;;;;;;;8.95;79.88;99272.66;342462;28;1054;-68
2022/11/15 00:20:01;;;;;;;11.48;9.27;;;;;;;8.92;79.88;99272.72;342328;28;1551;-68
2022/11/15 00:20:13;;;;;;;10.45;8.07;;;;;;;8.91;79.60;99272.78;342422;28;1157;-68
2022/11/15 00:20:24;;;;;;;9.57;6.43;;;;;;;8.92;79.94;99272.72;342194;28;1380;-68
2022/11/15 00:20:37;;;;;;;8.82;6.00;;;;;;;8.93;79.65;99269.25;342336;28;1020;-68
2022/11/15 00:20:49;;;;;;;8.15;5.80;;;;;;;8.89;79.85;99277.16;341477;28;1773;-68
2022/11/15 00:21:10;;;;;;;8.98;5.63;;;;;;;8.88;79.52;99275.47;341324;28;1949;-68
2022/11/15 00:21:22;;;;;;;7.63;4.97;;;;;;;8.90;79.63;99271.09;342439;28;1088;-69
2022/11/15 00:21:34;;;;;;;6.63;4.57;;;;;;;8.90;79.44;99277.13;341126;28;1083;-69
2022/11/15 00:21:46;;;;;;;6.63;4.70;;;;;;;8.90;79.45;99277.13;341118;29;1105;-68
2022/11/15 00:21:58;;;;;;;7.22;4.70;;;;;;;8.89;79.37;99277.16;340819;28;1227;-68
2022/11/15 00:22:10;;;;;;;7.25;4.60;;;;;;;8.87;79.51;99273.75;342537;28;1401;-68
2022/11/15 00:22:22;;;;;;;7.00;4.60;;;;;;;8.79;79.62;99272.28;343408;28;1680;-69
2022/11/15 00:22:34;;;;;;;7.18;5.45;;;;;;;8.71;80.01;99274.25;342529;28;768;-68
2022/11/15 00:22:46;;;;;;;9.30;6.93;;;;;;;8.66;80.34;99276.13;341737;28;1750;-69
2022/11/15 00:22:58;;;;;;;10.45;7.28;;;;;;;8.58;80.70;99278.13;342367;28;1123;-69
2022/11/15 00:23:10;;;;;;;9.30;6.97;;;;;;;8.63;80.69;99278.81;340833;29;1100;-69
2022/11/15 00:23:22;;;;;;;7.80;6.20;;;;;;;8.67;80.79;99276.97;340460;28;1810;-69
2022/11/15 00:23:34;;;;;;;9.13;7.20;;;;;;;8.69;80.55;99278.66;340851;28;1239;-68
2022/11/15 00:23:46;;;;;;;10.00;8.55;;;;;;;8.68;80.65;99279.53;340212;29;1855;-69
2022/11/15 00:23:58;;;;;;;9.50;8.23;;;;;;;8.66;80.75;99280.47;340785;29;1859;-70
2022/11/15 00:24:11;;;;;;;9.48;7.15;;;;;;;8.58;80.98;99272.94;340585;29;1158;-70
2022/11/15 00:24:23;;;;;;;12.10;10.40;;;;;;;8.60;80.78;99273.75;340526;29;1388;-70
2022/11/15 00:24:34;;;;;;;12.75;11.32;;;;;;;8.64;80.91;99272.75;339577;29;1068;-70
2022/11/15 00:24:46;;;;;;;10.52;9.35;;;;;;;8.61;80.91;99275.41;339962;29;1824;-70
2022/11/15 00:24:58;;;;;;;11.88;8.50;;;;;;;8.39;81.26;99265.69;342296;28;1863;-70
2022/11/15 00:25:10;;;;;;;11.95;8.65;;;;;;;8.21;81.65;99271.41;342239;28;1429;-70
2022/11/15 00:25:22;;;;;;;12.82;7.82;;;;;;;8.04;82.03;99268.47;343016;28;1892;-70
2022/11/15 00:25:34;;;;;;;10.85;6.78;;;;;;;7.93;82.21;99277.38;342001;28;1059;-70
2022/11/15 00:25:46;;;;;;;8.85;6.03;;;;;;;7.93;82.86;99272.19;342107;28;1757;-70
2022/11/15 00:25:59;;;;;;;6.95;5.30;;;;;;;7.94;82.71;99276.47;344580;28;1743;-70
2022/11/15 00:26:13;;;;;;;7.05;5.00;;;;;;;8.03;82.79;99269.34;344678;28;1301;-70
2022/11/15 00:26:25;;;;;;;8.63;6.22;;;;;;;8.13;82.84;99270.75;344045;28;1809;-70
2022/11/15 00:26:37;;;;;;;10.70;6.95;;;;;;;8.22;82.74;99270.50;344115;28;1657;-70
2022/11/15 00:26:49;;;;;;;9.60;6.68;;;;;;;8.31;82.59;99275.44;343566;28;1836;-70
2022/11/15 00:27:01;;;;;;;7.43;5.65;;;;;;;8.37;82.39;99262.31;342011;28;1559;-70
2022/11/15 00:27:18;;;;;;;6.30;5.18;;;;;;;8.47;82.02;99272.41;343858;28;1253;-70
2022/11/15 00:27:30;;;;;;;5.82;4.78;;;;;;;8.54;82.00;99276.50;344813;28;1679;-70
2022/11/15 00:27:42;;;;;;;6.00;4.60;;;;;;;8.57;81.63;99276.41;344732;28;1087;-70
2022/11/15 00:27:58;;;;;;;7.90;4.90;;;;;;;8.57;81.40;99276.41;344738;28;1067;-70
2022/11/15 00:28:10;;;;;;;7.88;4.82;;;;;;;8.62;81.48;99274.53;343816;28;1181;-70
2022/11/15 00:28:22;;;;;;;6.80;4.35;;;;;;;8.63;81.40;99267.59;342435;28;1665;-70
2022/11/15 00:28:34;;;;;;;6.82;4.38;;;;;;;8.66;81.32;99272.72;343441;28;1681;-70
2022/11/15 00:28:46;;;;;;;6.38;4.47;;;;;;;8.68;81.17;99276.09;343589;28;1071;-70
2022/11/15 00:28:58;;;;;;;5.78;4.57;;;;;;;8.71;81.00;99276.84;342266;28;1129;-70
2022/11/15 00:29:10;;;;;;;6.80;5.57;;;;;;;8.69;80.59;99276.06;342130;28;1236;-70
2022/11/15 00:29:22;;;;;;;9.95;6.50;;;;;;;8.69;80.64;99276.06;340909;29;1356;-70
2022/11/15 00:29:34;;;;;;;10.57;6.80;;;;;;;8.74;80.64;99274.16;341056;29;2353;-70
2022/11/15 00:29:46;;;;;;;8.00;5.70;;;;;;;8.72;80.58;99270.75;342134;28;1063;-70
2022/11/15 00:29:58;;;;;;;7.40;4.97;;;;;;;8.74;80.45;99266.38;340952;28;2126;-70
2022/11/15 00:30:10;;;;;;;6.97;4.30;;;;;;;8.76;80.43;99271.53;341819;28;1657;-70
2022/11/15 00:30:23;;;;;;;6.80;4.40;;;;;;;8.79;80.43;99271.41;343208;28;1317;-70
2022/11/15 00:30:35;;;;;;;6.32;4.40;;;;;;;8.80;80.40;99270.53;343469;28;1650;-70
2022/11/15 00:30:46;;;;;;;5.97;4.15;;;;;;;8.82;80.28;99278.25;343463;28;1636;-70
2022/11/15 00:31:07;;;;;;;6.38;4.28;;;;;;;8.83;80.21;99273.00;342722;28;741;-70
2022/11/15 00:31:19;;;;;;;6.78;4.20;;;;;;;8.83;80.18;99277.34;343500;28;1576;-70
2022/11/15 00:31:31;;;;;;;8.30;4.30;;;;;;;8.82;80.18;99270.50;343244;28;1241;-70
2022/11/15 00:31:43;;;;;;;8.32;4.22;;;;;;;8.75;80.23;99270.69;342433;28;1010;-70
2022/11/15 00:31:55;;;;;;;7.50;5.05;;;;;;;8.68;80.33;99276.09;341163;28;979;-70
2022/11/15 00:32:06;;;;;;;9.63;6.18;;;;;;;8.62;80.22;99269.34;340651;29;1047;-70
2022/11/15 00:32:18;;;;;;;10.07;7.22;;;;;;;8.63;80.49;99268.44;340943;29;1079;-70
2022/11/15 00:32:32;;;;;;;10.10;7.18;;;;;;;8.59;80.55;99274.63;340531;29;1189;-70
2022/11/15 00:32:44;;;;;;;10.20;6.68;;;;;;;8.46;79.70;99266.38;340913;29;1075;-70
2022/11/15 00:32:55;;;;;;;9.18;6.07;;;;;;;8.45;79.98;99271.59;340765;29;1031;-70
2022/11/15 00:33:08;;;;;;;10.20;7.13;;;;;;;8.36;79.59;99267.53;341022;28;1079;-70
2022/11/15 00:33:20;;;;;;;12.65;10.48;;;;;;;8.38;79.72;99268.31;340929;28;1222;-70
2022/11/15 00:33:33;;;;;;;16.88;13.23;;;;;;;8.39;79.58;99268.28;341024;28;2132;-70
2022/11/15 00:33:45;;;;;;;16.30;13.20;;;;;;;8.42;79.60;99263.94;341120;28;1079;-70
2022/11/15 00:33:57;;;;;;;13.77;11.68;;;;;;;8.47;79.40;99264.63;341000;29;1258;-70
2022/11/15 00:34:10;;;;;;;11.27;10.10;;;;;;;8.41;79.03;99260.50;341007;28;1019;-70
2022/11/15 00:34:22;;;;;;;11.15;8.73;;;;;;;8.34;78.78;99262.38;341765;28;1307;-70
2022/11/15 00:34:34;;;;;;;10.75;7.90;;;;;;;8.27;78.42;99265.19;341928;28;1261;-70
2022/11/15 00:34:46;;;;;;;10.85;7.80;;;;;;;8.32;78.95;99261.56;341830;28;1221;-70
2022/11/15 00:34:58;;;;;;;9.75;7.65;;;;;;;8.25;78.73;99260.06;342337;28;1007;-70
2022/11/15 00:35:09;;;;;;;9.30;7.20;;;;;;;8.12;78.72;99256.97;342118;28;1052;-70
2022/11/15 00:35:22;;;;;;;8.27;6.30;;;;;;;8.09;79.09;99256.22;341649;28;1670;-70
2022/11/15 00:35:34;;;;;;;8.32;5.85;;;;;;;8.06;79.29;99264.09;339641;29;1132;-70
2022/11/15 00:35:46;;;;;;;7.72;5.30;;;;;;;8.04;79.25;99263.28;339426;28;1766;-70
2022/11/15 00:36:09;;;;;;;7.55;5.05;;;;;;;7.98;79.63;99261.72;340703;29;1816;-70
2022/11/15 00:36:21;;;;;;;8.13;4.30;;;;;;;7.89;80.07;99262.81;340235;29;1347;-70
2022/11/15 00:36:34;;;;;;;7.45;4.30;;;;;;;7.92;80.63;99265.31;340329;28;1659;-70
2022/11/15 00:36:46;;;;;;;6.25;4.80;;;;;;;7.95;80.86;99257.47;340575;28;1948;-70
2022/11/15 00:36:58;;;;;;;7.00;4.90;;;;;;;7.97;80.53;99260.88;340892;29;1967;-70
2022/11/15 00:37:10;;;;;;;6.57;4.72;;;;;;;7.94;80.65;99260.09;340472;28;1725;-70
2022/11/15 00:37:21;;;;;;;6.85;4.85;;;;;;;7.91;80.76;99267.97;341886;28;1683;-70
2022/11/15 00:37:34;;;;;;;7.15;5.00;;;;;;;7.88;80.91;99270.63;342319;28;1035;-70
2022/11/15 00:37:47;;;;;;;7.65;5.30;;;;;;;7.91;80.43;99266.22;341925;28;2091;-70
2022/11/15 00:38:00;;;;;;;7.63;5.50;;;;;;;7.97;80.84;99260.88;342127;28;1884;-70
2022/11/15 00:38:12;;;;;;;8.18;6.38;;;;;;;8.04;80.84;99263.28;342557;28;1065;-70
2022/11/15 00:38:23;;;;;;;9.05;7.15;;;;;;;8.10;80.96;99261.34;342158;28;1384;-70
2022/11/15 00:38:37;;;;;;;10.10;8.00;;;;;;;8.17;81.24;99262.03;341616;28;2184;-70
2022/11/15 00:38:49;;;;;;;9.05;7.30;;;;;;;8.21;81.26;99261.06;341613;28;1908;-70
2022/11/15 00:39:05;;;;;;;8.10;6.75;;;;;;;8.23;81.37;99261.88;341839;28;1915;-70
2022/11/15 00:39:17;;;;;;;9.00;7.55;;;;;;;8.26;81.00;99261.75;341713;28;2046;-70
2022/11/15 00:39:29;;;;;;;9.47;7.60;;;;;;;8.23;80.62;99261.00;342350;28;1039;-70
2022/11/15 00:39:41;;;;;;;9.63;6.90;;;;;;;8.16;80.18;99249.97;341735;28;1778;-70
2022/11/15 00:39:53;;;;;;;9.35;6.53;;;;;;;8.07;79.65;99251.09;342106;28;2109;-70
2022/11/15 00:40:05;;;;;;;8.95;6.10;;;;;;;8.06;79.76;99253.72;342177;28;1042;-70
2022/11/15 00:40:17;;;;;;;8.45;5.43;;;;;;;8.10;79.75;99260.50;341634;28;1787;-70
2022/11/15 00:40:29;;;;;;;8.18;5.05;;;;;;;8.16;79.88;99252.56;341725;28;1715;-70
2022/11/15 00:40:41;;;;;;;7.75;4.85;;;;;;;8.20;80.23;99256.75;342169;28;2003;-70
2022/11/15 00:40:53;;;;;;;8.60;4.85;;;;;;;8.15;79.92;99258.66;342491;28;1258;-70
2022/11/15 00:41:07;;;;;;;8.02;4.60;;;;;;;7.99;79.74;99253.06;342293;28;1930;-70
2022/11/15 00:41:21;;;;;;;8.00;4.63;;;;;;;7.91;80.02;99261.03;341033;28;1634;-70
2022/11/15 00:41:33;;;;;;;8.05;4.85;;;;;;;7.96;80.30;99248.81;341045;28;1035;-70
2022/11/15 00:41:45;;;;;;;7.45;4.75;;;;;;;7.96;80.43;99253.97;341119;28;1726;-70
2022/11/15 00:41:56;;;;;;;7.50;4.68;;;;;;;7.97;80.43;99250.50;342473;28;1812;-70
2022/11/15 00:42:08;;;;;;;7.18;4.70;;;;;;;8.04;80.30;99258.09;341945;28;1018;-70
2022/11/15 00:42:20;;;;;;;6.38;4.70;;;;;;;8.07;80.16;99260.59;342296;28;1266;-70
2022/11/15 00:42:32;;;;;;;6.65;4.97;;;;;;;8.05;80.13;99257.19;342362;28;1167;-70
2022/11/15 00:42:45;;;;;;;6.60;5.10;;;;;;;8.08;80.07;99251.94;341654;28;1756;-70
2022/11/15 00:42:57;;;;;;;8.95;5.40;;;;;;;8.07;79.84;99251.09;342669;28;2082;-70
2022/11/15 00:43:09;;;;;;;9.45;5.20;;;;;;;8.05;80.19;99258.06;342287;28;1164;-70
2022/11/15 00:43:21;;;;;;;8.73;4.93;;;;;;;8.03;80.47;99248.63;342070;28;1622;-70
2022/11/15 00:43:34;;;;;;;8.75;4.97;;;;;;;7.93;80.68;99250.66;342383;28;1071;-70
2022/11/15 00:43:46;;;;;;;9.25;5.00;;;;;;;7.87;80.51;99254.25;341870;28;1796;-70
2022/11/15 00:43:57;;;;;;;9.20;5.13;;;;;;;7.91;80.39;99255.03;341260;28;1991;-70
2022/11/15 00:44:09;;;;;;;7.25;4.75;;;;;;;7.85;80.64;99258.63;342103;28;1097;-70
2022/11/15 00:44:21;;;;;;;7.30;4.80;;;;;;;7.85;80.82;99255.16;342080;28;1281;-70
2022/11/15 00:44:33;;;;;;;6.75;4.53;;;;;;;7.82;80.67;99261.28;341888;28;1306;-70
2022/11/15 00:44:45;;;;;;;7.47;4.70;;;;;;;7.78;80.86;99259.66;342631;28;1792;-70
2022/11/15 00:44:57;;;;;;;6.85;4.93;;;;;;;7.82;81.13;99257.84;342965;28;1733;-70
2022/11/15 00:45:09;;;;;;;7.47;5.15;;;;;;;7.81;81.13;99262.19;342893;28;1803;-70
2022/11/15 00:45:22;;;;;;;9.57;5.38;;;;;;;7.81;81.30;99254.44;342571;28;1262;-70
2022/11/15 00:45:34;;;;;;;9.63;5.38;;;;;;;7.84;80.75;99254.31;342072;28;1266;-70
2022/11/15 00:45:46;;;;;;;9.57;5.22;;;;;;;7.89;81.00;99257.66;340644;28;1841;-70
2022/11/15 00:45:58;;;;;;;9.82;5.20;;;;;;;7.95;81.55;99252.28;342842;28;1954;-70
2022/11/15 00:46:10;;;;;;;10.05;5.30;;;;;;;7.98;81.48;99254.78;343549;28;1609;-70
2022/11/15 00:46:22;;;;;;;8.00;5.38;;;;;;;8.02;81.64;99252.13;343311;28;1863;-70
2022/11/15 00:46:34;;;;;;;8.73;5.70;;;;;;;8.05;81.79;99257.19;343217;28;1865;-70
2022/11/15 00:46:45;;;;;;;9.20;5.70;;;;;;;8.10;81.57;99255.34;344419;28;1111;-70
2022/11/15 00:46:57;;;;;;;8.40;5.18;;;;;;;8.14;81.64;99254.34;343516;28;1133;-70
2022/11/15 00:47:09;;;;;;;7.18;5.30;;;;;;;8.19;81.55;99252.50;342047;28;1150;-70
2022/11/15 00:47:21;;;;;;;7.78;5.47;;;;;;;8.22;81.32;99257.56;341972;28;1966;-70
2022/11/15 00:47:33;;;;;;;8.35;5.40;;;;;;;8.25;81.26;99252.31;342016;28;1808;-70
2022/11/15 00:47:46;;;;;;;8.15;5.22;;;;;;;8.29;81.30;99246.16;342856;28;1983;-70
2022/11/15 00:47:58;;;;;;;7.85;4.95;;;;;;;8.33;81.33;99254.66;342258;28;1224;-70
2022/11/15 00:48:10;;;;;;;9.00;4.82;;;;;;;8.37;81.25;99253.66;342393;28;1086;-68
2022/11/15 00:48:22;;;;;;;8.75;4.90;;;;;;;8.41;81.07;99255.31;342444;28;1257;-68
2022/11/15 00:48:34;;;;;;;7.65;4.70;;;;;;;8.44;81.24;99250.03;342145;28;1072;-68
2022/11/15 00:48:46;;;;;;;7.30;4.68;;;;;;;8.48;81.25;99253.38;341454;28;1889;-68
2022/11/15 00:48:57;;;;;;;6.13;4.43;;;;;;;8.50;81.14;99249.00;340851;29;1764;-68
2022/11/15 00:49:09;;;;;;;6.65;4.70;;;;;;;8.49;81.28;99258.53;340776;29;1027;-68
2022/11/15 00:49:21;;;;;;;6.55;4.72;;;;;;;8.50;81.11;99249.00;340654;29;1286;-68
2022/11/15 00:49:33;;;;;;;7.18;4.85;;;;;;;8.51;81.02;99251.56;340099;29;1905;-68
2022/11/15 00:49:45;;;;;;;9.40;5.75;;;;;;;8.52;80.85;99247.22;340643;29;1871;-68
2022/11/15 00:49:58;;;;;;;9.90;6.25;;;;;;;8.51;81.17;99242.91;340365;29;1688;-68
2022/11/15 00:50:09;;;;;;;9.07;6.22;;;;;;;8.46;81.11;99250.00;341054;29;1127;-68
2022/11/15 00:50:26;;;;;;;7.53;4.53;;;;;;;8.44;81.01;99249.19;340573;29;1036;-68
2022/11/15 00:50:38;;;;;;;7.88;4.70;;;;;;;8.40;81.27;99249.25;340712;29;3972;-68
2022/11/15 00:50:50;;;;;;;8.13;5.00;;;;;;;8.42;81.34;99248.41;340621;28;1731;-68
2022/11/15 00:51:02;;;;;;;7.28;4.82;;;;;;;8.44;81.32;99252.63;341525;28;1965;-68
2022/11/15 00:51:14;;;;;;;7.05;4.70;;;;;;;8.28;81.78;99247.03;342560;28;1202;-68
2022/11/15 00:51:26;;;;;;;6.55;4.63;;;;;;;8.09;82.50;99248.44;342420;28;1049;-68
2022/11/15 00:51:37;;;;;;;7.80;5.32;;;;;;;7.96;82.90;99253.13;342397;28;1091;-68
2022/11/15 00:51:49;;;;;;;9.90;6.38;;;;;;;7.98;83.36;99249.59;342007;28;1797;-68
2022/11/15 00:52:01;;;;;;;10.65;6.90;;;;;;;8.01;83.33;99246.09;342274;28;1687;-68
2022/11/15 00:52:13;;;;;;;9.48;6.32;;;;;;;8.07;83.43;99245.94;342233;28;1345;-68
2022/11/15 00:52:25;;;;;;;9.05;5.55;;;;;;;8.09;83.13;99251.03;344684;28;1810;-68
2022/11/15 00:52:37;;;;;;;9.45;5.95;;;;;;;7.92;83.18;99252.38;344497;28;1145;-68
2022/11/15 00:52:49;;;;;;;9.55;6.55;;;;;;;7.88;83.04;99250.75;343978;28;1885;-68
2022/11/15 00:53:01;;;;;;;10.82;7.68;;;;;;;7.87;83.51;99249.06;344528;28;1797;-68
2022/11/15 00:53:13;;;;;;;11.38;8.13;;;;;;;7.78;83.74;99254.50;343574;28;1111;-68
2022/11/15 00:53:25;;;;;;;9.45;7.55;;;;;;;7.75;83.77;99249.41;343949;28;1625;-68
2022/11/15 00:53:37;;;;;;;8.20;6.40;;;;;;;7.73;83.80;99252.03;344602;28;1780;-68
2022/11/15 00:53:49;;;;;;;7.90;5.85;;;;;;;7.70;83.87;99253.84;344483;28;1769;-67
2022/11/15 00:54:01;;;;;;;9.63;5.85;;;;;;;7.71;83.94;99247.81;344761;28;1113;-67
2022/11/15 00:54:13;;;;;;;12.40;6.38;;;;;;;7.68;84.03;99247.88;344933;28;1055;-67
2022/11/15 00:54:25;;;;;;;11.93;6.32;;;;;;;7.66;84.12;99255.69;344501;28;1316;-67
2022/11/15 00:54:37;;;;;;;10.73;6.40;;;;;;;7.63;84.14;99252.34;342123;28;1581;-67
2022/11/15 00:54:49;;;;;;;9.65;6.50;;;;;;;7.63;83.97;99250.59;341502;28;1876;-67
2022/11/15 00:55:01;;;;;;;10.43;6.47;;;;;;;7.58;84.12;99248.13;341992;28;1934;-67
2022/11/15 00:55:17;;;;;;;10.73;5.95;;;;;;;7.55;83.52;99252.53;342280;28;1311;-67
2022/11/15 00:55:29;;;;;;;9.32;5.47;;;;;;;7.48;83.35;99251.84;341676;28;2333;-67
2022/11/15 00:55:41;;;;;;;8.80;5.30;;;;;;;7.47;82.97;99247.56;342164;28;1082;-69
2022/11/15 00:55:53;;;;;;;8.52;5.32;;;;;;;7.58;83.06;99247.28;341542;28;1991;-69
2022/11/15 00:56:05;;;;;;;6.80;5.20;;;;;;;7.68;83.05;99242.72;341987;28;1985;-69
2022/11/15 00:56:17;;;;;;;6.43;4.70;;;;;;;7.76;82.81;99248.50;342391;28;1358;-69
2022/11/15 00:56:29;;;;;;;6.93;5.45;;;;;;;7.83;83.15;99251.78;341508;28;1885;-69
2022/11/15 00:56:41;;;;;;;8.15;6.90;;;;;;;7.89;83.29;99254.22;342328;28;1200;-69
2022/11/15 00:56:53;;;;;;;17.60;15.73;;;;;;;7.93;83.03;99243.72;341825;28;1778;-68
2022/11/15 00:57:05;;;;;;;20.75;18.55;;;;;;;7.99;82.95;99242.72;341962;28;1934;-68
2022/11/15 00:57:17;;;;;;;17.60;15.70;;;;;;;8.05;82.96;99246.84;342103;28;1310;-69
2022/11/15 00:57:29;;;;;;;11.55;9.00;;;;;;;8.09;82.85;99243.25;342209;28;1226;-69
2022/11/15 00:57:41;;;;;;;8.48;5.93;;;;;;;8.11;82.89;99238.88;342286;28;1083;-69
2022/11/15 00:57:53;;;;;;;7.07;4.80;;;;;;;8.12;82.77;99248.38;341888;28;1762;-69
2022/11/15 00:58:05;;;;;;;8.15;5.05;;;;;;;8.14;82.69;99246.59;343043;28;1986;-69
2022/11/15 00:58:17;;;;;;;9.52;4.88;;;;;;;8.16;82.71;99244.78;343347;28;1230;-69
2022/11/15 00:58:29;;;;;;;9.77;5.10;;;;;;;8.17;82.66;99246.50;341467;28;1805;-69
2022/11/15 00:58:41;;;;;;;7.97;4.95;;;;;;;8.10;82.49;99247.56;340967;28;2019;-69
2022/11/15 00:58:53;;;;;;;6.72;4.68;;;;;;;8.10;82.62;99242.38;340742;29;1028;-69
2022/11/15 00:59:05;;;;;;;6.85;4.70;;;;;;;8.13;82.45;99247.47;340491;28;1422;-70
2022/11/15 00:59:16;;;;;;;7.18;4.82;;;;;;;8.12;82.31;99251.81;340054;29;1738;-70
2022/11/15 00:59:28;;;;;;;7.85;5.43;;;;;;;8.12;82.42;99244.03;340997;29;1316;-70
2022/11/15 00:59:40;;;;;;;8.48;5.95;;;;;;;8.10;82.16;99244.97;340055;29;1835;-70
2022/11/15 00:59:52;;;;;;;8.57;5.97;;;;;;;8.02;82.67;99246.94;340618;29;1996;-70
2022/11/15 01:00:05;;;;;;;8.93;6.00;;;;;;;8.00;82.71;99247.81;340601;28;1720;-70
2022/11/15 01:00:17;;;;;;;8.55;6.30;;;;;;;7.99;82.92;99243.56;340783;29;1763;-70
2022/11/15 01:00:29;;;;;;;10.82;8.57;;;;;;;7.99;83.06;99243.56;341234;28;1054;-70
2022/11/15 01:00:41;;;;;;;12.40;10.00;;;;;;;8.00;83.03;99244.38;341917;28;1872;-70
2022/11/15 01:00:53;;;;;;;11.05;9.27;;;;;;;7.98;83.31;99241.00;342338;28;1747;-70